createdAt,value
2023-06-29T00:02:05.093Z,26.00
2023-06-29T00:04:53.019Z,26.63
2023-06-29T00:07:38.004Z,26.19
2023-06-29T00:10:18.950Z,26.45
2023-06-29T00:13:02.311Z,26.53
2023-06-29T00:15:44.427Z,25.89
2023-06-29T00:18:30.056Z,26.61
2023-06-29T00:21:16.174Z,26.93
2023-06-29T00:23:54.860Z,24.95
2023-06-29T00:26:35.704Z,25.62
2023-06-29T00:29:16.211Z,26.34
2023-06-29T00:31:55.748Z,26.51
2023-06-29T00:34:44.068Z,26.30
2023-06-29T00:37:33.187Z,26.54
2023-06-29T00:40:21.039Z,26.25
2023-06-29T00:43:06.811Z,25.92
2023-06-29T00:45:44.956Z,25.65
2023-06-29T00:48:27.232Z,24.27
2023-06-29T00:51:09.664Z,24.79
2023-06-29T00:53:50.929Z,24.62
2023-06-29T00:56:26.652Z,24.52
2023-06-29T00:59:09.174Z,24.69
2023-06-29T01:01:50.717Z,26.01
2023-06-29T01:04:34.812Z,25.64
2023-06-29T01:07:46.998Z,26.43
2023-06-29T01:10:25.445Z,26.37
2023-06-29T01:13:16.607Z,25.18
2023-06-29T01:15:58.554Z,25.17
2023-06-29T01:18:39.705Z,25.65
2023-06-29T01:21:21.937Z,25.16
2023-06-29T01:24:07.682Z,24.80
2023-06-29T01:26:49.982Z,24.90
2023-06-29T01:29:38.140Z,25.27
2023-06-29T01:32:23.708Z,24.79
2023-06-29T01:35:09.123Z,24.83
2023-06-29T01:37:58.425Z,24.82
2023-06-29T01:40:47.965Z,24.66
2023-06-29T01:43:29.488Z,24.70
2023-06-29T01:46:15.906Z,24.86
2023-06-29T01:48:54.914Z,25.01
2023-06-29T01:51:40.970Z,25.10
2023-06-29T01:54:22.199Z,25.34
2023-06-29T01:57:02.932Z,24.92
2023-06-29T01:59:43.805Z,25.13
2023-06-29T02:02:26.092Z,24.71
2023-06-29T02:05:07.972Z,24.77
2023-06-29T02:07:51.389Z,24.71
2023-06-29T02:10:41.415Z,24.51
2023-06-29T02:13:19.425Z,24.51
2023-06-29T02:16:00.846Z,24.57
2023-06-29T02:18:42.040Z,24.41
2023-06-29T02:21:17.230Z,23.96
2023-06-29T02:24:03.837Z,24.14
2023-06-29T02:26:47.761Z,24.11
2023-06-29T02:29:41.741Z,24.36
2023-06-29T02:32:22.506Z,24.29
2023-06-29T02:35:03.782Z,24.38
2023-06-29T02:37:45.833Z,24.02
2023-06-29T02:40:21.287Z,23.65
2023-06-29T02:43:07.993Z,23.16
2023-06-29T02:45:48.927Z,23.32
2023-06-29T02:48:29.070Z,23.18
2023-06-29T02:51:15.997Z,23.19
2023-06-29T02:53:59.475Z,22.99
2023-06-29T02:56:43.146Z,23.28
2023-06-29T02:59:31.648Z,23.43
2023-06-29T03:02:20.643Z,23.30
2023-06-29T03:05:04.621Z,23.07
2023-06-29T03:07:46.230Z,23.31
2023-06-29T03:10:23.971Z,23.15
2023-06-29T03:12:59.997Z,23.17
2023-06-29T03:15:38.409Z,23.32
2023-06-29T03:18:32.328Z,23.18
2023-06-29T03:21:18.409Z,23.29
2023-06-29T03:24:03.959Z,23.26
2023-06-29T03:26:53.902Z,22.75
2023-06-29T03:29:39.902Z,23.05
2023-06-29T03:32:15.158Z,23.11
2023-06-29T03:34:52.791Z,23.55
2023-06-29T03:37:31.959Z,23.65
2023-06-29T03:40:14.662Z,23.46
2023-06-29T03:42:51.029Z,23.30
2023-06-29T03:45:33.259Z,23.99
2023-06-29T03:48:12.433Z,24.08
2023-06-29T03:50:51.081Z,24.11
2023-06-29T03:53:32.083Z,25.44
2023-06-29T03:56:17.598Z,25.14
2023-06-29T03:58:59.174Z,25.00
2023-06-29T04:01:34.574Z,24.04
2023-06-29T04:04:26.996Z,24.65
2023-06-29T04:07:18.967Z,24.69
2023-06-29T04:09:57.134Z,25.50
2023-06-29T04:12:35.756Z,25.04
2023-06-29T04:15:17.026Z,24.97
2023-06-29T04:18:08.819Z,25.65
2023-06-29T04:20:50.202Z,26.50
2023-06-29T04:23:43.873Z,26.29
2023-06-29T04:26:42.213Z,26.25
2023-06-29T04:29:23.122Z,26.77
2023-06-29T04:32:03.193Z,27.31
2023-06-29T04:34:55.662Z,27.26
2023-06-29T04:37:46.030Z,28.13
2023-06-29T04:40:27.097Z,28.74
2023-06-29T04:43:12.638Z,28.92
2023-06-29T04:46:05.496Z,29.32
2023-06-29T04:48:50.236Z,30.37
2023-06-29T04:51:40.857Z,30.15
2023-06-29T04:54:37.734Z,31.14
2023-06-29T04:57:16.951Z,31.20
2023-06-29T05:00:02.243Z,31.58
2023-06-29T05:02:37.579Z,31.26
2023-06-29T05:05:20.203Z,31.42
2023-06-29T05:07:58.176Z,31.75
2023-06-29T05:10:41.847Z,32.50
2023-06-29T05:13:33.934Z,32.11
2023-06-29T05:16:22.849Z,32.82
2023-06-29T05:19:05.064Z,32.56
2023-06-29T05:21:53.070Z,32.88
2023-06-29T05:24:32.698Z,33.96
2023-06-29T05:27:08.905Z,33.60
2023-06-29T05:29:46.599Z,33.31
2023-06-29T05:32:22.050Z,34.29
2023-06-29T05:35:05.740Z,34.33
2023-06-29T05:37:39.420Z,34.76
2023-06-29T05:40:11.203Z,34.28
2023-06-29T05:42:57.920Z,33.44
2023-06-29T05:45:40.570Z,34.60
2023-06-29T05:48:16.033Z,33.74
2023-06-29T05:50:57.482Z,33.73
2023-06-29T05:53:30.466Z,34.68
2023-06-29T05:56:11.341Z,34.87
2023-06-29T05:58:52.454Z,35.22
2023-06-29T06:01:30.038Z,34.75
2023-06-29T06:04:07.594Z,35.37
2023-06-29T06:06:52.298Z,35.30
2023-06-29T06:09:30.149Z,34.67
2023-06-29T06:12:24.948Z,35.12
2023-06-29T06:15:03.240Z,33.85
2023-06-29T06:17:35.546Z,35.43
2023-06-29T06:20:19.469Z,35.91
2023-06-29T06:23:07.703Z,35.51
2023-06-29T06:25:43.339Z,35.14
2023-06-29T06:28:16.095Z,35.20
2023-06-29T06:31:01.826Z,35.31
2023-06-29T06:33:51.210Z,35.29
2023-06-29T06:36:33.951Z,35.55
2023-06-29T06:39:19.428Z,35.20
2023-06-29T06:41:57.831Z,36.19
2023-06-29T06:44:35.195Z,36.16
2023-06-29T06:47:20.748Z,36.10
2023-06-29T06:49:59.709Z,36.96
2023-06-29T06:52:43.072Z,36.05
2023-06-29T06:55:18.442Z,36.42
2023-06-29T06:58:01.899Z,35.98
2023-06-29T07:00:43.781Z,37.25
2023-06-29T07:03:20.542Z,36.65
2023-06-29T07:05:56.855Z,36.73
2023-06-29T07:08:36.890Z,36.74
2023-06-29T07:11:14.776Z,36.35
2023-06-29T07:13:53.400Z,36.99
2023-06-29T07:16:37.385Z,36.55
2023-06-29T07:24:55.271Z,37.87
2023-06-29T07:27:45.661Z,37.65
2023-06-29T07:30:25.586Z,38.20
2023-06-29T07:33:08.771Z,38.12
2023-06-29T07:35:55.059Z,38.12
2023-06-29T07:38:26.456Z,38.26
2023-06-29T07:41:01.567Z,38.49
2023-06-29T07:43:51.144Z,37.21
2023-06-29T07:46:24.247Z,38.31
2023-06-29T07:48:57.824Z,38.71
2023-06-29T07:51:34.647Z,38.94
2023-06-29T07:54:16.321Z,38.35
2023-06-29T07:59:35.657Z,38.46
2023-06-29T08:02:29.002Z,38.47
2023-06-29T08:07:47.116Z,36.82
2023-06-29T08:10:28.157Z,37.49
2023-06-29T08:13:12.176Z,37.59
2023-06-29T08:15:49.785Z,37.27
2023-06-29T08:18:37.413Z,36.32
2023-06-29T08:21:11.849Z,35.72
2023-06-29T08:23:47.806Z,36.19
2023-06-29T08:26:43.099Z,37.31
2023-06-29T08:29:19.283Z,37.19
2023-06-29T08:32:02.306Z,37.19
2023-06-29T08:34:48.647Z,36.52
2023-06-29T08:37:21.472Z,35.68
2023-06-29T08:40:02.208Z,35.88
2023-06-29T08:42:46.976Z,36.06
2023-06-29T08:45:25.909Z,37.41
2023-06-29T08:51:06.615Z,36.99
2023-06-29T08:53:46.858Z,37.13
2023-06-29T08:56:27.405Z,37.04
2023-06-29T08:59:05.481Z,37.36
2023-06-29T09:01:51.266Z,37.14
2023-06-29T09:04:29.764Z,36.63
2023-06-29T09:07:08.851Z,36.08
2023-06-29T09:12:41.566Z,37.05
2023-06-29T09:15:53.624Z,36.49
2023-06-29T09:18:44.474Z,36.78
2023-06-29T09:21:37.068Z,36.79
2023-06-29T09:24:17.252Z,36.87
2023-06-29T09:30:09.681Z,37.22
2023-06-29T09:32:57.752Z,36.82
2023-06-29T09:35:36.164Z,36.99
2023-06-29T09:38:17.580Z,36.93
2023-06-29T09:41:00.848Z,36.71
2023-06-29T09:43:34.351Z,36.49
2023-06-29T09:46:25.516Z,37.29
2023-06-29T09:52:06.172Z,36.74
2023-06-29T09:54:39.009Z,35.47
2023-06-29T09:57:15.050Z,36.50
2023-06-29T10:00:00.736Z,36.29
2023-06-29T10:02:39.874Z,36.58
2023-06-29T10:05:19.978Z,35.80
2023-06-29T10:08:14.620Z,35.95
2023-06-29T10:11:15.987Z,37.01
2023-06-29T10:14:07.475Z,37.38
2023-06-29T10:16:57.587Z,37.50
2023-06-29T10:19:44.398Z,37.27
2023-06-29T10:22:33.583Z,37.92
2023-06-29T10:25:30.329Z,38.29
2023-06-29T10:28:07.286Z,39.06
2023-06-29T10:30:58.233Z,39.59
2023-06-29T10:33:48.084Z,39.53
2023-06-29T10:36:37.827Z,38.96
2023-06-29T10:39:45.492Z,39.32
2023-06-29T10:42:23.592Z,39.67
2023-06-29T10:45:07.198Z,39.54
2023-06-29T10:47:43.107Z,39.12
2023-06-29T10:50:19.032Z,39.47
2023-06-29T10:52:51.278Z,39.31
2023-06-29T10:55:41.315Z,39.45
2023-06-29T10:58:35.683Z,39.56
2023-06-29T11:01:27.366Z,40.71
2023-06-29T11:04:05.326Z,40.29
2023-06-29T11:06:54.525Z,40.20
2023-06-29T11:09:35.808Z,38.79
2023-06-29T11:12:15.747Z,38.72
2023-06-29T11:17:54.394Z,39.68
2023-06-29T11:20:47.679Z,39.57
2023-06-29T11:23:37.080Z,39.31
2023-06-29T11:26:10.393Z,38.71
2023-06-29T11:28:51.338Z,39.42
2023-06-29T11:31:44.687Z,39.58
2023-06-29T11:34:25.973Z,39.10
2023-06-29T11:37:24.788Z,39.18
2023-06-29T11:40:17.454Z,39.16
2023-06-29T11:43:04.013Z,39.88
2023-06-29T11:45:52.263Z,39.34
2023-06-29T11:48:35.009Z,40.31
2023-06-29T11:51:11.423Z,40.00
2023-06-29T11:53:51.966Z,39.79
2023-06-29T11:56:41.711Z,40.29
2023-06-29T11:59:23.859Z,40.55
2023-06-29T12:02:09.231Z,40.54
2023-06-29T12:04:57.894Z,40.45
2023-06-29T12:07:50.567Z,41.33
2023-06-29T12:10:33.272Z,41.74
2023-06-29T12:13:12.516Z,41.89
2023-06-29T12:18:39.613Z,42.32
2023-06-29T12:21:27.342Z,42.02
2023-06-29T12:24:04.256Z,42.20
2023-06-29T12:26:41.582Z,41.83
2023-06-29T12:29:16.801Z,42.90
2023-06-29T12:31:59.067Z,43.06
2023-06-29T12:34:43.407Z,43.02
2023-06-29T12:37:20.372Z,42.07
2023-06-29T12:39:56.485Z,42.13
2023-06-29T12:45:13.351Z,43.86
2023-06-29T12:48:05.049Z,43.21
2023-06-29T12:50:41.332Z,42.36
2023-06-29T12:53:20.696Z,42.37
2023-06-29T12:56:00.010Z,42.36
2023-06-29T12:58:37.944Z,41.54
2023-06-29T13:01:19.206Z,42.75
2023-06-29T13:03:55.344Z,42.62
2023-06-29T13:06:33.603Z,42.39
2023-06-29T13:09:09.216Z,42.37
2023-06-29T13:11:48.202Z,42.16
2023-06-29T13:14:24.246Z,41.84
2023-06-29T13:17:01.542Z,43.20
2023-06-29T13:19:42.644Z,42.13
2023-06-29T13:22:34.773Z,41.52
2023-06-29T13:25:20.346Z,41.12
2023-06-29T13:27:58.180Z,40.99
2023-06-29T13:30:29.701Z,41.56
2023-06-29T13:33:22.440Z,42.09
2023-06-29T13:36:03.713Z,41.75
2023-06-29T13:38:36.500Z,41.40
2023-06-29T13:41:08.225Z,41.28
2023-06-29T13:43:52.882Z,41.44
2023-06-29T13:46:25.858Z,41.58
2023-06-29T13:49:09.910Z,41.27
2023-06-29T13:51:49.411Z,41.24
2023-06-29T13:54:35.073Z,41.48
2023-06-29T13:57:11.000Z,40.00
2023-06-29T13:59:52.951Z,40.23
2023-06-29T14:02:31.604Z,40.47
2023-06-29T14:05:07.258Z,40.36
2023-06-29T14:07:48.772Z,40.52
2023-06-29T14:10:24.849Z,41.06
2023-06-29T14:13:04.719Z,40.77
2023-06-29T14:15:42.041Z,40.57
2023-06-29T14:18:17.866Z,41.53
2023-06-29T14:23:52.085Z,42.24
2023-06-29T14:26:30.492Z,42.07
2023-06-29T14:29:16.588Z,41.89
2023-06-29T14:31:50.689Z,41.17
2023-06-29T14:34:36.414Z,42.16
2023-06-29T14:40:08.685Z,41.97
2023-06-29T14:42:44.959Z,42.54
2023-06-29T14:45:29.360Z,42.55
2023-06-29T14:48:01.905Z,42.41
2023-06-29T14:50:34.514Z,42.53
2023-06-29T14:53:07.036Z,41.91
2023-06-29T14:55:44.078Z,42.35
2023-06-29T14:58:25.491Z,42.32
2023-06-29T15:01:00.129Z,42.27
2023-06-29T15:03:35.415Z,42.10
2023-06-29T15:06:13.780Z,41.46
2023-06-29T15:08:54.188Z,41.64
2023-06-29T15:11:24.541Z,41.64
2023-06-29T15:14:04.950Z,41.69
2023-06-29T15:16:35.255Z,41.71
2023-06-29T15:19:16.744Z,42.05
2023-06-29T15:21:50.406Z,40.88
2023-06-29T15:24:22.608Z,40.75
2023-06-29T15:27:05.182Z,41.88
2023-06-29T15:29:35.233Z,41.91
2023-06-29T15:32:19.134Z,41.99
2023-06-29T15:34:50.161Z,40.64
2023-06-29T15:37:25.496Z,41.85
2023-06-29T15:40:03.723Z,41.94
2023-06-29T15:42:46.773Z,42.21
2023-06-29T15:45:22.322Z,42.40
2023-06-29T15:48:02.521Z,41.54
2023-06-29T15:50:32.920Z,41.81
2023-06-29T15:53:11.202Z,41.65
2023-06-29T15:55:47.381Z,41.78
2023-06-29T15:58:25.228Z,40.82
2023-06-29T16:01:00.772Z,41.21
2023-06-29T16:03:33.569Z,41.59
2023-06-29T16:06:09.085Z,41.10
2023-06-29T16:08:41.737Z,41.51
2023-06-29T16:11:27.804Z,42.10
2023-06-29T16:14:00.716Z,41.86
2023-06-29T16:16:38.307Z,42.01
2023-06-29T16:19:19.031Z,42.89
2023-06-29T16:22:19.490Z,43.09
2023-06-29T16:24:52.254Z,43.21
2023-06-29T16:27:38.289Z,43.58
2023-06-29T16:30:13.694Z,43.91
2023-06-29T16:32:50.037Z,43.10
2023-06-29T16:35:24.756Z,43.21
2023-06-29T16:38:04.635Z,43.15
2023-06-29T16:40:42.559Z,43.27
2023-06-29T16:43:18.372Z,44.14
2023-06-29T16:45:56.735Z,46.06
2023-06-29T16:48:33.357Z,45.97
2023-06-29T16:51:17.181Z,44.37
2023-06-29T16:53:49.742Z,44.58
2023-06-29T16:56:33.099Z,42.43
2023-06-29T16:59:10.365Z,42.88
2023-06-29T17:01:48.756Z,42.58
2023-06-29T17:04:27.689Z,41.64
2023-06-29T17:07:03.201Z,41.16
2023-06-29T17:09:36.164Z,40.79
2023-06-29T17:12:09.800Z,40.82
2023-06-29T17:14:42.696Z,40.45
2023-06-29T17:17:15.994Z,40.84
2023-06-29T17:20:12.113Z,41.59
2023-06-29T17:22:55.756Z,42.28
2023-06-29T17:25:34.003Z,42.26
2023-06-29T17:28:11.454Z,41.89
2023-06-29T17:30:56.697Z,41.25
2023-06-29T17:33:53.392Z,40.97
2023-06-29T17:36:32.396Z,40.32
2023-06-29T17:39:12.331Z,39.91
2023-06-29T17:41:54.169Z,39.17
2023-06-29T17:44:32.228Z,39.59
2023-06-29T17:47:04.649Z,39.11
2023-06-29T17:49:39.808Z,39.52
2023-06-29T17:52:21.125Z,38.47
2023-06-29T17:54:58.914Z,38.47
2023-06-29T17:57:38.612Z,38.07
2023-06-29T18:00:24.617Z,37.61
2023-06-29T18:03:02.957Z,37.80
2023-06-29T18:05:35.729Z,37.50
2023-06-29T18:08:16.177Z,37.07
2023-06-29T18:10:57.013Z,36.83
2023-06-29T18:13:32.737Z,35.97
2023-06-29T18:16:10.730Z,36.40
2023-06-29T18:19:07.167Z,35.01
2023-06-29T18:21:39.671Z,35.32
2023-06-29T18:24:17.657Z,35.11
2023-06-29T18:26:50.281Z,35.30
2023-06-29T18:29:25.938Z,34.61
2023-06-29T18:32:07.414Z,35.17
2023-06-29T18:34:53.559Z,34.87
2023-06-29T18:37:33.644Z,35.27
2023-06-29T18:40:06.931Z,34.80
2023-06-29T18:42:43.166Z,34.82
2023-06-29T18:45:21.322Z,34.34
2023-06-29T18:48:00.251Z,34.36
2023-06-29T18:50:33.374Z,34.13
2023-06-29T18:53:10.965Z,34.25
2023-06-29T18:55:44.072Z,33.63
2023-06-29T18:58:22.373Z,33.49
2023-06-29T19:00:52.348Z,33.13
2023-06-29T19:03:29.172Z,32.95
2023-06-29T19:06:04.918Z,32.67
2023-06-29T19:08:39.699Z,32.64
2023-06-29T19:11:18.354Z,32.52
2023-06-29T19:13:59.586Z,32.44
2023-06-29T19:16:36.117Z,32.25
2023-06-29T19:19:17.448Z,32.23
2023-06-29T19:21:55.548Z,32.07
2023-06-29T19:24:25.826Z,31.93
2023-06-29T19:26:56.241Z,31.79
2023-06-29T19:32:27.266Z,31.75
2023-06-29T19:35:11.732Z,31.26
2023-06-29T19:37:48.384Z,31.46
2023-06-29T19:40:35.469Z,31.66
2023-06-29T19:43:23.418Z,31.85
2023-06-29T19:46:15.340Z,32.10
2023-06-29T19:48:59.401Z,31.83
2023-06-29T19:51:46.164Z,32.11
2023-06-29T19:54:21.246Z,32.04
2023-06-29T19:56:59.359Z,32.09
2023-06-29T19:59:34.324Z,31.57
2023-06-29T20:02:12.212Z,31.17
2023-06-29T20:04:47.601Z,31.14
2023-06-29T20:10:25.827Z,31.13
2023-06-29T20:13:11.420Z,31.40
2023-06-29T20:15:46.817Z,31.23
2023-06-29T20:18:26.573Z,31.04
2023-06-29T20:21:12.943Z,31.25
2023-06-29T20:24:13.992Z,31.01
2023-06-29T20:26:52.000Z,30.67
2023-06-29T20:29:40.020Z,30.78
2023-06-29T20:32:26.235Z,30.60
2023-06-29T20:35:09.599Z,30.76
2023-06-29T20:37:53.136Z,30.89
2023-06-29T20:40:38.967Z,30.81
2023-06-29T20:43:23.758Z,30.11
2023-06-29T20:46:00.382Z,29.73
2023-06-29T20:48:55.597Z,29.73
2023-06-29T20:51:40.417Z,29.57
2023-06-29T20:54:19.230Z,29.44
2023-06-29T20:57:02.895Z,29.55
2023-06-29T20:59:41.182Z,29.14
2023-06-29T21:05:15.823Z,29.42
2023-06-29T21:08:17.505Z,29.48
2023-06-29T21:11:01.952Z,29.22
2023-06-29T21:13:48.524Z,28.68
2023-06-29T21:16:28.343Z,28.90
2023-06-29T21:19:16.885Z,28.67
2023-06-29T21:21:57.496Z,28.43
2023-06-29T21:24:43.043Z,28.71
2023-06-29T21:27:23.951Z,28.56
2023-06-29T21:30:06.176Z,28.51
2023-06-29T21:32:51.843Z,28.28
2023-06-29T21:35:27.303Z,28.48
2023-06-29T21:38:07.041Z,28.37
2023-06-29T21:40:53.009Z,28.38
2023-06-29T21:43:38.926Z,28.21
2023-06-29T21:46:24.856Z,28.27
2023-06-29T21:49:03.266Z,28.02
2023-06-29T21:51:43.965Z,27.90
2023-06-29T21:54:27.334Z,27.97
2023-06-29T21:57:03.030Z,27.79
2023-06-29T21:59:41.196Z,27.66
2023-06-29T22:02:22.508Z,27.42
2023-06-29T22:05:18.160Z,27.63
2023-06-29T22:07:56.049Z,27.41
2023-06-29T22:10:42.877Z,27.03
2023-06-29T22:13:26.808Z,27.42
2023-06-29T22:16:08.869Z,27.48
2023-06-29T22:18:53.155Z,27.43
2023-06-29T22:21:36.745Z,27.25
2023-06-29T22:24:17.891Z,27.23
2023-06-29T22:26:58.122Z,26.93
2023-06-29T22:29:36.229Z,26.99
2023-06-29T22:32:28.058Z,27.01
2023-06-29T22:35:10.106Z,27.12
2023-06-29T22:37:55.550Z,27.26
2023-06-29T22:40:38.943Z,27.29
2023-06-29T22:43:25.862Z,27.40
2023-06-29T22:46:17.510Z,27.37
2023-06-29T22:49:03.402Z,27.30
2023-06-29T22:51:55.124Z,27.32
2023-06-29T22:54:35.993Z,26.91
2023-06-29T22:57:25.036Z,26.83
2023-06-29T23:00:11.442Z,27.09
2023-06-29T23:02:49.624Z,27.12
2023-06-29T23:05:25.108Z,27.18
2023-06-29T23:08:22.985Z,26.85
2023-06-29T23:10:56.255Z,27.23
2023-06-29T23:13:42.898Z,27.03
2023-06-29T23:16:28.554Z,26.82
2023-06-29T23:19:14.799Z,27.08
2023-06-29T23:21:55.753Z,27.04
2023-06-29T23:24:41.896Z,26.63
2023-06-29T23:27:27.503Z,26.44
2023-06-29T23:30:13.809Z,26.43
2023-06-29T23:32:52.693Z,26.38
2023-06-29T23:35:33.134Z,26.27
2023-06-29T23:38:18.735Z,26.08
2023-06-29T23:41:05.248Z,26.27
2023-06-29T23:44:05.038Z,26.48
2023-06-29T23:46:54.425Z,26.28
2023-06-29T23:49:35.028Z,25.84
2023-06-29T23:52:21.586Z,25.82
2023-06-29T23:54:59.276Z,25.99
2023-06-29T23:57:39.916Z,25.96
